sensor_id;sensor_type;location;lat;lon;timestamp;pressure;altitude;pressure_sealevel;temperature;humidity
59190;BME280;50749;51.636;4.948;2024-01-15T00:01:53;100497.81;;;15.59;62.15
59190;BME280;50749;51.636;4.948;2024-01-15T00:04:21;100497.38;;;15.57;62.19
59190;BME280;50749;51.636;4.948;2024-01-15T00:06:53;100490.25;;;15.56;62.22
59190;BME280;50749;51.636;4.948;2024-01-15T00:09:22;100494.97;;;15.55;62.17
59190;BME280;50749;51.636;4.948;2024-01-15T00:11:51;100489.00;;;15.53;62.22
59190;BME280;50749;51.636;4.948;2024-01-15T00:14:19;100477.16;;;15.53;62.24
59190;BME280;50749;51.636;4.948;2024-01-15T00:16:49;100472.00;;;15.51;62.16
59190;BME280;50749;51.636;4.948;2024-01-15T00:19:17;100472.69;;;15.48;62.35
59190;BME280;50749;51.636;4.948;2024-01-15T00:21:47;100472.69;;;15.48;62.09
59190;BME280;50749;51.636;4.948;2024-01-15T00:24:18;100469.50;;;15.46;62.04
59190;BME280;50749;51.636;4.948;2024-01-15T00:26:47;100461.56;;;15.45;62.18
59190;BME280;50749;51.636;4.948;2024-01-15T00:29:15;100460.78;;;15.44;62.29
59190;BME280;50749;51.636;4.948;2024-01-15T00:31:44;100456.75;;;15.41;62.11
59190;BME280;50749;51.636;4.948;2024-01-15T00:34:13;100454.38;;;15.40;62.44
59190;BME280;50749;51.636;4.948;2024-01-15T00:36:41;100450.00;;;15.39;62.23
59190;BME280;50749;51.636;4.948;2024-01-15T00:39:10;100457.84;;;15.37;62.31
59190;BME280;50749;51.636;4.948;2024-01-15T00:41:42;100446.38;;;15.35;62.32
59190;BME280;50749;51.636;4.948;2024-01-15T00:44:10;100448.66;;;15.33;62.43
59190;BME280;50749;51.636;4.948;2024-01-15T00:46:43;100445.44;;;15.31;62.53
59190;BME280;50749;51.636;4.948;2024-01-15T00:49:13;100443.03;;;15.29;62.13
59190;BME280;50749;51.636;4.948;2024-01-15T00:51:42;100446.13;;;15.28;62.29
59190;BME280;50749;51.636;4.948;2024-01-15T00:54:10;100433.53;;;15.27;62.49
59190;BME280;50749;51.636;4.948;2024-01-15T00:56:42;100435.03;;;15.24;62.56
59190;BME280;50749;51.636;4.948;2024-01-15T00:59:10;100438.91;;;15.23;62.47
59190;BME280;50749;51.636;4.948;2024-01-15T01:01:40;100439.28;;;15.21;62.44
59190;BME280;50749;51.636;4.948;2024-01-15T01:04:09;100444.81;;;15.21;62.12
59190;BME280;50749;51.636;4.948;2024-01-15T01:06:39;100447.91;;;15.20;62.58
59190;BME280;50749;51.636;4.948;2024-01-15T01:09:08;100441.91;;;15.18;62.43
59190;BME280;50749;51.636;4.948;2024-01-15T01:11:37;100433.66;;;15.18;62.51
59190;BME280;50749;51.636;4.948;2024-01-15T01:14:08;100436.41;;;15.18;62.13
59190;BME280;50749;51.636;4.948;2024-01-15T01:16:37;100432.41;;;15.15;62.18
59190;BME280;50749;51.636;4.948;2024-01-15T01:19:06;100422.19;;;15.16;61.97
59190;BME280;50749;51.636;4.948;2024-01-15T01:21:35;100425.31;;;15.14;62.07
59190;BME280;50749;51.636;4.948;2024-01-15T01:24:04;100425.66;;;15.13;62.16
59190;BME280;50749;51.636;4.948;2024-01-15T01:26:33;100426.00;;;15.11;62.09
59190;BME280;50749;51.636;4.948;2024-01-15T01:29:02;100412.59;;;15.10;62.08
59190;BME280;50749;51.636;4.948;2024-01-15T01:31:33;100411.78;;;15.09;62.09
59190;BME280;50749;51.636;4.948;2024-01-15T01:34:02;100423.13;;;15.08;62.06
59190;BME280;50749;51.636;4.948;2024-01-15T01:36:31;100422.34;;;15.07;62.06
59190;BME280;50749;51.636;4.948;2024-01-15T01:39:00;100429.00;;;15.06;62.12
59190;BME280;50749;51.636;4.948;2024-01-15T01:41:29;100419.16;;;15.05;62.08
59190;BME280;50749;51.636;4.948;2024-01-15T01:43:57;100423.03;;;15.04;62.13
59190;BME280;50749;51.636;4.948;2024-01-15T01:46:27;100423.38;;;15.02;61.93
59190;BME280;50749;51.636;4.948;2024-01-15T01:48:58;100428.09;;;15.02;61.95
59190;BME280;50749;51.636;4.948;2024-01-15T01:51:31;100419.38;;;15.00;62.05
59190;BME280;50749;51.636;4.948;2024-01-15T01:54:01;100423.63;;;14.97;61.82
59190;BME280;50749;51.636;4.948;2024-01-15T01:56:30;100417.31;;;14.97;61.85
59190;BME280;50749;51.636;4.948;2024-01-15T01:58:59;100416.88;;;14.95;61.93
59190;BME280;50749;51.636;4.948;2024-01-15T02:01:28;100412.50;;;14.94;62.04
59190;BME280;50749;51.636;4.948;2024-01-15T02:04:00;100419.97;;;14.93;61.99
59190;BME280;50749;51.636;4.948;2024-01-15T02:06:29;100418.34;;;14.92;61.82
59190;BME280;50749;51.636;4.948;2024-01-15T02:08:57;100417.91;;;14.90;62.11
59190;BME280;50749;51.636;4.948;2024-01-15T02:11:27;100419.06;;;14.89;62.08
59190;BME280;50749;51.636;4.948;2024-01-15T02:13:56;100416.31;;;14.89;62.08
59190;BME280;50749;51.636;4.948;2024-01-15T02:16:25;100415.84;;;14.87;62.06
59190;BME280;50749;51.636;4.948;2024-01-15T02:18:54;100406.81;;;14.86;61.99
59190;BME280;50749;51.636;4.948;2024-01-15T02:21:25;100418.94;;;14.85;61.85
59190;BME280;50749;51.636;4.948;2024-01-15T02:23:57;100402.00;;;14.83;61.94
59190;BME280;50749;51.636;4.948;2024-01-15T02:26:26;100403.13;;;14.82;61.87
59190;BME280;50749;51.636;4.948;2024-01-15T02:28:55;100416.09;;;14.82;61.87
59190;BME280;50749;51.636;4.948;2024-01-15T02:31:24;100431.00;;;14.81;61.94
59190;BME280;50749;51.636;4.948;2024-01-15T02:33:52;100443.94;;;14.80;61.94
59190;BME280;50749;51.636;4.948;2024-01-15T02:36:21;100445.47;;;14.78;62.00
59190;BME280;50749;51.636;4.948;2024-01-15T02:38:50;100426.53;;;14.76;61.79
59190;BME280;50749;51.636;4.948;2024-01-15T02:41:21;100411.97;;;14.76;61.70
59190;BME280;50749;51.636;4.948;2024-01-15T02:43:50;100421.03;;;14.76;61.72
59190;BME280;50749;51.636;4.948;2024-01-15T02:46:19;100417.81;;;14.74;61.66
59190;BME280;50749;51.636;4.948;2024-01-15T02:48:47;100416.22;;;14.73;61.99
59190;BME280;50749;51.636;4.948;2024-01-15T02:51:16;100414.63;;;14.72;61.86
59190;BME280;50749;51.636;4.948;2024-01-15T02:53:45;100399.28;;;14.71;61.95
59190;BME280;50749;51.636;4.948;2024-01-15T02:56:14;100402.03;;;14.71;61.68
59190;BME280;50749;51.636;4.948;2024-01-15T02:58:45;100396.84;;;14.70;61.80
59190;BME280;50749;51.636;4.948;2024-01-15T03:01:14;100397.19;;;14.68;61.77
59190;BME280;50749;51.636;4.948;2024-01-15T03:03:42;100390.09;;;14.67;61.81
59190;BME280;50749;51.636;4.948;2024-01-15T03:06:11;100397.53;;;14.66;61.96
59190;BME280;50749;51.636;4.948;2024-01-15T03:08:40;100406.16;;;14.65;61.76
59190;BME280;50749;51.636;4.948;2024-01-15T03:11:09;100408.09;;;14.64;61.67
59190;BME280;50749;51.636;4.948;2024-01-15T03:13:37;100411.19;;;14.63;61.63
59190;BME280;50749;51.636;4.948;2024-01-15T03:16:10;100398.56;;;14.62;61.80
59190;BME280;50749;51.636;4.948;2024-01-15T03:18:38;100419.78;;;14.61;61.67
59190;BME280;50749;51.636;4.948;2024-01-15T03:21:07;100418.19;;;14.60;61.50
59190;BME280;50749;51.636;4.948;2024-01-15T03:23:36;100422.88;;;14.60;61.73
59190;BME280;50749;51.636;4.948;2024-01-15T03:26:05;100403.63;;;14.60;61.72
59190;BME280;50749;51.636;4.948;2024-01-15T03:28:33;100408.66;;;14.58;61.52
59190;BME280;50749;51.636;4.948;2024-01-15T03:31:03;100396.03;;;14.57;61.53
59190;BME280;50749;51.636;4.948;2024-01-15T03:33:34;100400.75;;;14.56;61.52
59190;BME280;50749;51.636;4.948;2024-01-15T03:36:03;100405.41;;;14.56;61.77
59190;BME280;50749;51.636;4.948;2024-01-15T03:38:32;100403.84;;;14.55;61.49
59190;BME280;50749;51.636;4.948;2024-01-15T03:41:00;100409.34;;;14.55;61.64
59190;BME280;50749;51.636;4.948;2024-01-15T03:43:29;100401.44;;;14.53;61.56
59190;BME280;50749;51.636;4.948;2024-01-15T03:45:58;100408.06;;;14.52;61.64
59190;BME280;50749;51.636;4.948;2024-01-15T03:48:27;100391.91;;;14.50;61.52
59190;BME280;50749;51.636;4.948;2024-01-15T03:50:59;100398.56;;;14.49;61.36
59190;BME280;50749;51.636;4.948;2024-01-15T03:53:27;100398.56;;;14.49;61.48
59190;BME280;50749;51.636;4.948;2024-01-15T03:55:56;100409.91;;;14.48;61.36
59190;BME280;50749;51.636;4.948;2024-01-15T03:58:25;100406.00;;;14.49;61.54
59190;BME280;50749;51.636;4.948;2024-01-15T04:00:54;100407.72;;;14.54;61.17
59190;BME280;50749;51.636;4.948;2024-01-15T04:03:22;100413.03;;;14.59;60.37
59190;BME280;50749;51.636;4.948;2024-01-15T04:05:51;100416.69;;;14.63;60.38
59190;BME280;50749;51.636;4.948;2024-01-15T04:08:22;100414.50;;;14.68;60.42
59190;BME280;50749;51.636;4.948;2024-01-15T04:10:51;100403.59;;;14.72;60.61
59190;BME280;50749;51.636;4.948;2024-01-15T04:13:20;100384.94;;;14.78;60.74
59190;BME280;50749;51.636;4.948;2024-01-15T04:15:49;100376.09;;;14.84;60.41
59190;BME280;50749;51.636;4.948;2024-01-15T04:18:18;100377.41;;;14.91;60.35
59190;BME280;50749;51.636;4.948;2024-01-15T04:20:46;100368.91;;;14.96;60.52
59190;BME280;50749;51.636;4.948;2024-01-15T04:23:15;100379.34;;;15.02;60.53
59190;BME280;50749;51.636;4.948;2024-01-15T04:25:46;100376.34;;;15.08;60.78
59190;BME280;50749;51.636;4.948;2024-01-15T04:28:15;100386.75;;;15.14;60.86
59190;BME280;50749;51.636;4.948;2024-01-15T04:30:44;100369.19;;;15.19;60.61
59190;BME280;50749;51.636;4.948;2024-01-15T04:33:12;100361.13;;;15.26;60.49
59190;BME280;50749;51.636;4.948;2024-01-15T04:35:41;100360.06;;;15.31;60.63
59190;BME280;50749;51.636;4.948;2024-01-15T04:38:10;100357.84;;;15.36;60.66
59190;BME280;50749;51.636;4.948;2024-01-15T04:40:39;100348.53;;;15.41;60.67
59190;BME280;50749;51.636;4.948;2024-01-15T04:43:10;100347.13;;;15.47;60.68
59190;BME280;50749;51.636;4.948;2024-01-15T04:45:39;100340.09;;;15.50;60.83
59190;BME280;50749;51.636;4.948;2024-01-15T04:48:08;100352.84;;;15.54;60.65
59190;BME280;50749;51.636;4.948;2024-01-15T04:50:36;100349.38;;;15.57;60.51
59190;BME280;50749;51.636;4.948;2024-01-15T04:53:05;100350.25;;;15.61;60.67
59190;BME280;50749;51.636;4.948;2024-01-15T04:55:34;100348.75;;;15.64;60.69
59190;BME280;50749;51.636;4.948;2024-01-15T04:58:03;100356.69;;;15.66;60.62
59190;BME280;50749;51.636;4.948;2024-01-15T05:00:34;100352.03;;;15.70;60.70
59190;BME280;50749;51.636;4.948;2024-01-15T05:03:04;100352.94;;;15.74;60.66
59190;BME280;50749;51.636;4.948;2024-01-15T05:05:33;100346.75;;;15.77;60.63
59190;BME280;50749;51.636;4.948;2024-01-15T05:08:05;100346.84;;;15.81;60.50
59190;BME280;50749;51.636;4.948;2024-01-15T05:10:34;100341.44;;;15.84;60.53
59190;BME280;50749;51.636;4.948;2024-01-15T05:13:03;100348.16;;;15.87;60.53
59190;BME280;50749;51.636;4.948;2024-01-15T05:15:34;100344.69;;;15.90;60.51
59190;BME280;50749;51.636;4.948;2024-01-15T05:18:03;100338.84;;;15.91;60.37
59190;BME280;50749;51.636;4.948;2024-01-15T05:20:32;100338.13;;;15.94;60.57
59190;BME280;50749;51.636;4.948;2024-01-15T05:23:00;100328.34;;;15.97;60.66
59190;BME280;50749;51.636;4.948;2024-01-15T05:25:29;100331.19;;;16.01;60.58
59190;BME280;50749;51.636;4.948;2024-01-15T05:27:58;100321.41;;;16.03;60.21
59190;BME280;50749;51.636;4.948;2024-01-15T05:30:27;100330.94;;;16.06;60.53
59190;BME280;50749;51.636;4.948;2024-01-15T05:32:58;100325.84;;;16.08;60.27
59190;BME280;50749;51.636;4.948;2024-01-15T05:35:28;100327.91;;;16.11;60.26
59190;BME280;50749;51.636;4.948;2024-01-15T05:37:57;100326.72;;;16.12;60.20
59190;BME280;50749;51.636;4.948;2024-01-15T05:40:26;100327.00;;;16.23;60.23
59190;BME280;50749;51.636;4.948;2024-01-15T05:42:54;100323.41;;;16.22;60.00
59190;BME280;50749;51.636;4.948;2024-01-15T05:45:23;100317.47;;;16.20;60.22
59190;BME280;50749;51.636;4.948;2024-01-15T05:47:52;100321.03;;;16.21;60.10
59190;BME280;50749;51.636;4.948;2024-01-15T05:50:24;100334.44;;;16.22;59.93
59190;BME280;50749;51.636;4.948;2024-01-15T05:52:53;100331.69;;;16.22;60.04
59190;BME280;50749;51.636;4.948;2024-01-15T05:55:21;100337.66;;;16.24;60.12
59190;BME280;50749;51.636;4.948;2024-01-15T05:57:50;100330.97;;;16.25;60.09
59190;BME280;50749;51.636;4.948;2024-01-15T06:00:19;100336.50;;;16.25;60.12
59190;BME280;50749;51.636;4.948;2024-01-15T06:02:48;100338.09;;;16.26;59.98
59190;BME280;50749;51.636;4.948;2024-01-15T06:05:17;100332.59;;;16.26;60.20
59190;BME280;50749;51.636;4.948;2024-01-15T06:07:48;100325.09;;;16.27;60.40
59190;BME280;50749;51.636;4.948;2024-01-15T06:10:17;100323.59;;;16.29;60.18
59190;BME280;50749;51.636;4.948;2024-01-15T06:12:45;100329.09;;;16.29;60.32
59190;BME280;50749;51.636;4.948;2024-01-15T06:15:14;100326.78;;;16.31;60.42
59190;BME280;50749;51.636;4.948;2024-01-15T06:17:43;100315.47;;;16.37;59.61
59190;BME280;50749;51.636;4.948;2024-01-15T06:20:12;100308.34;;;16.35;60.07
59190;BME280;50749;51.636;4.948;2024-01-15T06:22:41;100306.41;;;16.36;60.16
59190;BME280;50749;51.636;4.948;2024-01-15T06:25:13;100299.34;;;16.39;59.82
59190;BME280;50749;51.636;4.948;2024-01-15T06:27:41;100314.31;;;16.38;60.12
59190;BME280;50749;51.636;4.948;2024-01-15T06:30:11;100315.13;;;16.38;60.13
59190;BME280;50749;51.636;4.948;2024-01-15T06:32:40;100314.78;;;16.24;59.23
59190;BME280;50749;51.636;4.948;2024-01-15T06:35:09;100307.09;;;15.97;59.89
59190;BME280;50749;51.636;4.948;2024-01-15T06:37:37;100313.78;;;15.81;60.51
59190;BME280;50749;51.636;4.948;2024-01-15T06:40:08;100304.84;;;15.71;61.15
59190;BME280;50749;51.636;4.948;2024-01-15T06:42:39;100305.81;;;15.63;61.12
59190;BME280;50749;51.636;4.948;2024-01-15T06:45:09;100306.75;;;15.83;61.38
59190;BME280;50749;51.636;4.948;2024-01-15T06:47:37;100299.53;;;15.94;61.24
59190;BME280;50749;51.636;4.948;2024-01-15T06:50:08;100312.78;;;16.05;61.20
59190;BME280;50749;51.636;4.948;2024-01-15T06:52:37;100323.97;;;16.12;60.83
59190;BME280;50749;51.636;4.948;2024-01-15T06:55:06;100319.44;;;16.20;60.47
59190;BME280;50749;51.636;4.948;2024-01-15T06:57:35;100310.09;;;16.24;60.67
59190;BME280;50749;51.636;4.948;2024-01-15T07:00:08;100312.56;;;16.29;60.62
59190;BME280;50749;51.636;4.948;2024-01-15T07:02:36;100327.22;;;16.33;60.46
59190;BME280;50749;51.636;4.948;2024-01-15T07:05:06;100329.28;;;16.37;60.36
59190;BME280;50749;51.636;4.948;2024-01-15T07:07:35;100334.06;;;16.40;60.38
59190;BME280;50749;51.636;4.948;2024-01-15T07:10:05;100325.44;;;16.41;60.11
59190;BME280;50749;51.636;4.948;2024-01-15T07:12:34;100321.50;;;16.42;59.96
59190;BME280;50749;51.636;4.948;2024-01-15T07:15:06;100315.63;;;16.44;60.15
59190;BME280;50749;51.636;4.948;2024-01-15T07:17:35;100317.16;;;16.41;59.98
59190;BME280;50749;51.636;4.948;2024-01-15T07:20:06;100318.75;;;16.42;59.58
59190;BME280;50749;51.636;4.948;2024-01-15T07:22:36;100315.19;;;16.42;59.60
59190;BME280;50749;51.636;4.948;2024-01-15T07:25:06;100305.31;;;16.41;59.48
59190;BME280;50749;51.636;4.948;2024-01-15T07:27:34;100318.31;;;16.40;59.68
59190;BME280;50749;51.636;4.948;2024-01-15T07:30:04;100314.31;;;16.38;59.49
59190;BME280;50749;51.636;4.948;2024-01-15T07:32:35;100316.63;;;16.35;59.20
59190;BME280;50749;51.636;4.948;2024-01-15T07:35:05;100332.75;;;16.33;59.27
59190;BME280;50749;51.636;4.948;2024-01-15T07:37:34;100330.69;;;16.30;59.72
59190;BME280;50749;51.636;4.948;2024-01-15T07:40:03;100344.06;;;16.28;59.27
59190;BME280;50749;51.636;4.948;2024-01-15T07:42:34;100336.06;;;16.23;59.35
59190;BME280;50749;51.636;4.948;2024-01-15T07:45:04;100335.63;;;16.21;59.46
59190;BME280;50749;51.636;4.948;2024-01-15T07:47:36;100333.22;;;16.20;59.10
59190;BME280;50749;51.636;4.948;2024-01-15T07:50:05;100331.97;;;16.17;59.19
59190;BME280;50749;51.636;4.948;2024-01-15T07:52:34;100332.69;;;16.14;59.20
59190;BME280;50749;51.636;4.948;2024-01-15T07:55:03;100337.41;;;16.13;59.06
59190;BME280;50749;51.636;4.948;2024-01-15T07:57:32;100334.19;;;16.11;59.09
59190;BME280;50749;51.636;4.948;2024-01-15T08:00:01;100324.69;;;16.09;58.98
59190;BME280;50749;51.636;4.948;2024-01-15T08:02:32;100312.06;;;16.08;59.16
59190;BME280;50749;51.636;4.948;2024-01-15T08:05:03;100322.66;;;16.06;59.09
59190;BME280;50749;51.636;4.948;2024-01-15T08:07:32;100329.31;;;16.05;58.92
59190;BME280;50749;51.636;4.948;2024-01-15T08:10:01;100328.88;;;16.03;58.85
59190;BME280;50749;51.636;4.948;2024-01-15T08:12:29;100322.94;;;16.01;58.54
59190;BME280;50749;51.636;4.948;2024-01-15T08:14:58;100318.56;;;16.00;58.53
59190;BME280;50749;51.636;4.948;2024-01-15T08:17:27;100326.03;;;15.99;58.44
59190;BME280;50749;51.636;4.948;2024-01-15T08:19:56;100325.97;;;15.95;58.13
59190;BME280;50749;51.636;4.948;2024-01-15T08:22:28;100333.41;;;15.95;58.15
59190;BME280;50749;51.636;4.948;2024-01-15T08:24:57;100329.06;;;15.94;58.02
59190;BME280;50749;51.636;4.948;2024-01-15T08:27:26;100332.19;;;15.92;57.97
59190;BME280;50749;51.636;4.948;2024-01-15T08:29:55;100347.09;;;15.91;57.69
59190;BME280;50749;51.636;4.948;2024-01-15T08:32:23;100346.66;;;15.89;57.47
59190;BME280;50749;51.636;4.948;2024-01-15T08:34:52;100338.75;;;15.88;57.61
59190;BME280;50749;51.636;4.948;2024-01-15T08:37:21;100344.63;;;15.86;57.52
59190;BME280;50749;51.636;4.948;2024-01-15T08:39:52;100331.97;;;15.85;57.19
59190;BME280;50749;51.636;4.948;2024-01-15T08:42:21;100323.28;;;15.83;57.28
59190;BME280;50749;51.636;4.948;2024-01-15T08:44:50;100327.22;;;15.82;57.35
59190;BME280;50749;51.636;4.948;2024-01-15T08:47:19;100322.84;;;15.81;57.33
59190;BME280;50749;51.636;4.948;2024-01-15T08:49:48;100320.44;;;15.79;56.88
59190;BME280;50749;51.636;4.948;2024-01-15T08:52:16;100313.69;;;15.77;57.00
59190;BME280;50749;51.636;4.948;2024-01-15T08:54:46;100329.72;;;15.75;57.05
59190;BME280;50749;51.636;4.948;2024-01-15T08:57:17;100319.88;;;15.74;57.14
59190;BME280;50749;51.636;4.948;2024-01-15T08:59:46;100328.50;;;15.72;57.02
59190;BME280;50749;51.636;4.948;2024-01-15T09:02:14;100321.38;;;15.71;56.87
59190;BME280;50749;51.636;4.948;2024-01-15T09:04:43;100323.69;;;15.69;57.04
59190;BME280;50749;51.636;4.948;2024-01-15T09:07:12;100327.59;;;15.68;57.14
59190;BME280;50749;51.636;4.948;2024-01-15T09:09:40;100332.31;;;15.68;57.29
59190;BME280;50749;51.636;4.948;2024-01-15T09:12:10;100340.13;;;15.66;57.38
59190;BME280;50749;51.636;4.948;2024-01-15T09:14:43;100335.78;;;15.65;57.59
59190;BME280;50749;51.636;4.948;2024-01-15T09:17:12;100326.72;;;15.64;57.40
59190;BME280;50749;51.636;4.948;2024-01-15T09:19:41;100325.94;;;15.64;56.76
59190;BME280;50749;51.636;4.948;2024-01-15T09:22:10;100325.94;;;15.64;56.87
59190;BME280;50749;51.636;4.948;2024-01-15T09:24:40;100327.06;;;15.63;56.94
59190;BME280;50749;51.636;4.948;2024-01-15T09:27:09;100322.69;;;15.61;56.62
59190;BME280;50749;51.636;4.948;2024-01-15T09:29:38;100332.13;;;15.60;56.62
59190;BME280;50749;51.636;4.948;2024-01-15T09:32:10;100336.03;;;15.59;56.50
59190;BME280;50749;51.636;4.948;2024-01-15T09:34:39;100344.66;;;15.58;56.75
59190;BME280;50749;51.636;4.948;2024-01-15T09:37:08;100354.78;;;15.54;56.85
59190;BME280;50749;51.636;4.948;2024-01-15T09:39:36;100354.34;;;15.52;56.83
59190;BME280;50749;51.636;4.948;2024-01-15T09:42:05;100358.59;;;15.49;57.05
59190;BME280;50749;51.636;4.948;2024-01-15T09:44:34;100365.25;;;15.48;57.00
59190;BME280;50749;51.636;4.948;2024-01-15T09:47:04;100372.72;;;15.48;57.33
59190;BME280;50749;51.636;4.948;2024-01-15T09:49:36;100364.81;;;15.46;57.05
59190;BME280;50749;51.636;4.948;2024-01-15T09:52:07;100363.22;;;15.45;56.84
59190;BME280;50749;51.636;4.948;2024-01-15T09:54:36;100360.47;;;15.45;56.91
59190;BME280;50749;51.636;4.948;2024-01-15T09:57:06;100358.84;;;15.44;57.12
59190;BME280;50749;51.636;4.948;2024-01-15T09:59:36;100361.63;;;15.44;56.88
59190;BME280;50749;51.636;4.948;2024-01-15T10:02:05;100375.72;;;15.42;57.16
59190;BME280;50749;51.636;4.948;2024-01-15T10:04:38;100365.50;;;15.43;57.00
59190;BME280;50749;51.636;4.948;2024-01-15T10:07:07;100363.94;;;15.42;56.88
59190;BME280;50749;51.636;4.948;2024-01-15T10:09:37;100362.31;;;15.41;57.05
59190;BME280;50749;51.636;4.948;2024-01-15T10:12:06;100369.78;;;15.40;57.14
59190;BME280;50749;51.636;4.948;2024-01-15T10:14:36;100370.13;;;15.39;56.89
59190;BME280;50749;51.636;4.948;2024-01-15T10:17:12;100371.28;;;15.38;57.02
59190;BME280;50749;51.636;4.948;2024-01-15T10:19:45;100372.44;;;15.37;56.96
59190;BME280;50749;51.636;4.948;2024-01-15T10:22:14;100369.25;;;15.35;57.07
59190;BME280;50749;51.636;4.948;2024-01-15T10:24:43;100376.69;;;15.34;57.16
59190;BME280;50749;51.636;4.948;2024-01-15T10:27:12;100373.16;;;15.34;56.95
59190;BME280;50749;51.636;4.948;2024-01-15T10:29:42;100364.09;;;15.33;57.01
59190;BME280;50749;51.636;4.948;2024-01-15T10:32:11;100353.41;;;15.32;57.05
59190;BME280;50749;51.636;4.948;2024-01-15T10:34:40;100357.31;;;15.31;56.75
59190;BME280;50749;51.636;4.948;2024-01-15T10:37:12;100358.47;;;15.30;56.94
59190;BME280;50749;51.636;4.948;2024-01-15T10:39:41;100370.66;;;15.29;56.90
59190;BME280;50749;51.636;4.948;2024-01-15T10:42:10;100369.03;;;15.28;56.84
59190;BME280;50749;51.636;4.948;2024-01-15T10:44:38;100371.78;;;15.28;56.95
59190;BME280;50749;51.636;4.948;2024-01-15T10:47:09;100371.34;;;15.26;57.09
59190;BME280;50749;51.636;4.948;2024-01-15T10:49:38;100374.09;;;15.26;57.19
59190;BME280;50749;51.636;4.948;2024-01-15T10:52:07;100381.56;;;15.25;57.39
59190;BME280;50749;51.636;4.948;2024-01-15T10:54:38;100371.69;;;15.24;57.14
59190;BME280;50749;51.636;4.948;2024-01-15T10:57:08;100380.75;;;15.24;56.81
59190;BME280;50749;51.636;4.948;2024-01-15T10:59:37;100375.97;;;15.21;57.05
59190;BME280;50749;51.636;4.948;2024-01-15T11:02:06;100395.22;;;15.21;56.68
59190;BME280;50749;51.636;4.948;2024-01-15T11:04:36;100396.38;;;15.20;57.06
59190;BME280;50749;51.636;4.948;2024-01-15T11:07:05;100376.31;;;15.20;57.05
59190;BME280;50749;51.636;4.948;2024-01-15T11:09:39;100391.22;;;15.19;57.10
59190;BME280;50749;51.636;4.948;2024-01-15T11:12:10;100387.66;;;15.18;56.71
59190;BME280;50749;51.636;4.948;2024-01-15T11:14:40;100391.56;;;15.17;56.85
59190;BME280;50749;51.636;4.948;2024-01-15T11:17:10;100389.16;;;15.16;57.16
59190;BME280;50749;51.636;4.948;2024-01-15T11:19:42;100400.50;;;15.14;57.12
59190;BME280;50749;51.636;4.948;2024-01-15T11:25:15;100380.69;;;15.09;56.89
59190;BME280;50749;51.636;4.948;2024-01-15T11:27:49;100384.25;;;15.09;57.03
59190;BME280;50749;51.636;4.948;2024-01-15T11:30:19;100387.34;;;15.08;57.17
59190;BME280;50749;51.636;4.948;2024-01-15T11:32:48;100387.34;;;15.08;57.38
59190;BME280;50749;51.636;4.948;2024-01-15T11:35:17;100386.56;;;15.07;57.27
59190;BME280;50749;51.636;4.948;2024-01-15T11:37:58;100383.34;;;15.05;57.31
59190;BME280;50749;51.636;4.948;2024-01-15T11:40:40;100384.16;;;15.05;57.34
59190;BME280;50749;51.636;4.948;2024-01-15T11:43:12;100386.91;;;15.05;56.90
59190;BME280;50749;51.636;4.948;2024-01-15T11:45:48;100382.53;;;15.04;57.23
59190;BME280;50749;51.636;4.948;2024-01-15T11:48:20;100386.09;;;15.05;56.81
59190;BME280;50749;51.636;4.948;2024-01-15T11:50:52;100384.50;;;15.04;56.84
59190;BME280;50749;51.636;4.948;2024-01-15T11:53:27;100380.94;;;15.03;57.11
59190;BME280;50749;51.636;4.948;2024-01-15T11:56:02;100383.16;;;14.98;56.83
59190;BME280;50749;51.636;4.948;2024-01-15T11:58:31;100385.91;;;14.98;56.80
59190;BME280;50749;51.636;4.948;2024-01-15T12:01:01;100381.53;;;14.97;56.66
59190;BME280;50749;51.636;4.948;2024-01-15T12:03:32;100395.31;;;14.97;56.72
59190;BME280;50749;51.636;4.948;2024-01-15T12:06:01;100392.56;;;14.97;56.66
59190;BME280;50749;51.636;4.948;2024-01-15T12:08:30;100395.31;;;14.97;56.88
59190;BME280;50749;51.636;4.948;2024-01-15T12:11:05;100392.56;;;14.97;56.69
59190;BME280;50749;51.636;4.948;2024-01-15T12:13:35;100379.94;;;14.96;56.85
59190;BME280;50749;51.636;4.948;2024-01-15T12:16:04;100384.63;;;14.95;56.57
59190;BME280;50749;51.636;4.948;2024-01-15T12:18:33;100383.84;;;14.95;56.75
59190;BME280;50749;51.636;4.948;2024-01-15T12:21:02;100372.84;;;14.95;56.53
59190;BME280;50749;51.636;4.948;2024-01-15T12:23:33;100389.34;;;14.95;56.42
59190;BME280;50749;51.636;4.948;2024-01-15T12:26:04;100395.19;;;14.93;56.67
59190;BME280;50749;51.636;4.948;2024-01-15T12:28:33;100397.13;;;14.93;56.46
59190;BME280;50749;51.636;4.948;2024-01-15T12:31:02;100408.97;;;14.93;56.70
59190;BME280;50749;51.636;4.948;2024-01-15T12:33:33;100407.69;;;14.91;56.74
59190;BME280;50749;51.636;4.948;2024-01-15T12:36:02;100411.28;;;14.91;56.32
59190;BME280;50749;51.636;4.948;2024-01-15T12:38:32;100408.88;;;14.90;56.10
59190;BME280;50749;51.636;4.948;2024-01-15T12:41:01;100417.91;;;14.90;56.07
59190;BME280;50749;51.636;4.948;2024-01-15T12:43:32;100423.75;;;14.89;55.75
59190;BME280;50749;51.636;4.948;2024-01-15T12:46:01;100429.63;;;14.87;56.18
59190;BME280;50749;51.636;4.948;2024-01-15T12:48:30;100426.84;;;14.87;56.00
59190;BME280;50749;51.636;4.948;2024-01-15T12:50:58;100424.78;;;14.84;56.33
59190;BME280;50749;51.636;4.948;2024-01-15T12:53:27;100436.63;;;14.84;56.55
59190;BME280;50749;51.636;4.948;2024-01-15T12:55:56;100434.22;;;14.83;56.33
59190;BME280;50749;51.636;4.948;2024-01-15T12:58:25;100445.69;;;14.85;56.02
59190;BME280;50749;51.636;4.948;2024-01-15T13:00:56;100449.91;;;14.82;56.26
59190;BME280;50749;51.636;4.948;2024-01-15T13:03:25;100452.66;;;14.82;55.95
59190;BME280;50749;51.636;4.948;2024-01-15T13:05:54;100456.56;;;14.81;56.11